ADDS TAF Board (Experimental) INFO

IDs: Format: Expanded Condensed

Updated at: 1331 UTC 24 Oct 2014

KCLT - Charlotte/Douglas In, NC, US

Issued at 1130 UTC 24 Oct 2014
Time1252Z24/14Z24/15Z24/16Z24/17Z24/18Z24/19Z24/20Z24/21Z24/22Z24/23Z25/00Z25/01Z25/02Z
TypeOBSPRVLPRVLPRVLPRVLPRVLPRVLPRVLPRVLPRVLPRVLPRVLPRVLPRVL
VIS10>6>6>6>6>6>6>6>6>6>6>6>6>6
CIG160210210----------------------
CoverBKNBKNBKNSCTSCTSCTSCTSCTSCTSCTSCTSCTSCTSCT
FltCat--VFRVFRVFRVFRVFRVFRVFRVFRVFRVFRVFRVFRVFR
WX----------------------------
WDirVRB34034040404040230230230230230230230
WSpd03333333333333
WGst----------------------------
R05/23
XWndVRB3300000000000
HWndVRB113333-3-3-3-3-3-3-3
R18/36
XWndVRB-1-12222-2-2-2-2-2-2-2
HWndVRB-3-3-2-2-2-22222222
Raw TAF
KCLT 241130Z 2412/2512 34003KT P6SM BKN210
  FM241600 04003KT P6SM SCT180
  FM242000 23003KT P6SM SCT170
  FM250400 34003KT P6SM SKC


Raw METAR
KCLT 241252Z 00000KT 10SM BKN160 BKN250 08/06 A3008 RMK AO2 SLP186 T00830056

TAF Board Legend

Hazard VFR MVFR IFR LIFR
Visibility (sm) >5 3≤X≤5 1≤X<3 <1
Ceiling (100 ft) >30 10≤X≤30 5≤X<10 <5
Wind Speed (kt) <10 10≤X<20 20≤X<30 ≥30
Wind Gust (kt) <15 15≤X<25 25≤X<35 ≥35
Weather No Wx Reported VCTS,-TS,-FZRA TS,FZRA +TS,+FZRA


Page loaded:  13:31 UTC  |   06:31 AM Pacific  |   07:31 AM Mountain  |   08:31 AM Central  |   09:31 AM Eastern

 

ADVISORIES

FORECASTS

FORECASTS

OBSERVATIONS

USER TOOLS

ABOUT US